PWSweather.com
Personal Weather Stations
Station Observations
IPUMONTE2
MontelabbateIT 61025

MontelabbateIT 61025

Lat: 43.848, Lon: 12.7895

Elevation: 196

Station Type: LaCrosse WS3600

http://www.montelabbatemet.altervista.org/

High Low Average
Temperature 73.2°F22.9°C 52.8°F11.6°C 60.7°F15.9°C
Dew Point 55.0°F12.8°C 48.4°F9.1°C 51.7°F10.9°C
Winds 6.8 mph 10.9 kmh Calm Calm 2.0 mph S3.2 kmh S
Wind Gusts 9.8 mph15.8 kmh -- 3.0 mph4.8 kmh
Humidity 88% 47% 74%
Pressure 29.97 in1014.9 mb 29.91 in1012.9 mb -
Precipitation 0.00 in0.0 mm - -
Hour Temp Dew Point Humidity Winds Wind Gusts Pressure Precip Precip Rate Daily Precip Total
12:01 AM 57.7°F14.3°C 51.2°F10.7°C 79% 1.9 mph S3.1 kmh S 4.2 mph6.8 kmh 29.92 in1013.2 mb 0.00 in0.0 mm 0.00 in0.0 mm 0.00 in0.0 mm
12:06 AM 57.3°F14.1°C 50.5°F10.3°C 78% 2.0 mph SW3.2 kmh SW 2.2 mph3.5 kmh 29.92 in1013.2 mb 0.00 in0.0 mm 0.00 in0.0 mm 0.00 in0.0 mm
12:11 AM 56.8°F13.8°C 50.3°F10.2°C 79% 1.6 mph SW2.6 kmh SW 2.4 mph3.9 kmh 29.92 in1013.2 mb 0.00 in0.0 mm 0.00 in0.0 mm 0.00 in0.0 mm
12:16 AM 56.8°F13.8°C 50.3°F10.2°C 80% Calm Calm 2.4 mph3.9 kmh 29.92 in1013.2 mb 0.00 in0.0 mm 0.00 in0.0 mm 0.00 in0.0 mm
12:21 AM 56.3°F13.5°C 50.1°F10.1°C 80% 3.2 mph S5.1 kmh S 3.5 mph5.6 kmh 29.93 in1013.5 mb 0.00 in0.0 mm 0.00 in0.0 mm 0.00 in0.0 mm
12:26 AM 55.9°F13.3°C 50.1°F10.1°C 81% 1.5 mph SSW2.4 kmh SSW 3.5 mph5.6 kmh 29.93 in1013.5 mb 0.00 in0.0 mm 0.00 in0.0 mm 0.00 in0.0 mm
12:31 AM 56.1°F13.4°C 50.6°F10.3°C 82% 1.5 mph SSW2.4 kmh SSW 3.1 mph5.0 kmh 29.93 in1013.5 mb 0.00 in0.0 mm 0.00 in0.0 mm 0.00 in0.0 mm
12:36 AM 56.1°F13.4°C 50.6°F10.3°C 82% 1.7 mph SW2.7 kmh SW 2.9 mph4.7 kmh 29.93 in1013.5 mb 0.00 in0.0 mm 0.00 in0.0 mm 0.00 in0.0 mm
12:41 AM 55.9°F13.3°C 50.4°F10.2°C 82% 1.9 mph SW3.1 kmh SW 2.9 mph4.7 kmh 29.93 in1013.5 mb 0.00 in0.0 mm 0.00 in0.0 mm 0.00 in0.0 mm
12:46 AM 55.7°F13.2°C 50.2°F10.1°C 82% 1.3 mph SSW2.1 kmh SSW 2.4 mph3.9 kmh 29.93 in1013.5 mb 0.00 in0.0 mm 0.00 in0.0 mm 0.00 in0.0 mm
12:51 AM 55.7°F13.2°C 50.2°F10.1°C 82% 2.2 mph SW3.5 kmh SW 2.9 mph4.7 kmh 29.93 in1013.5 mb 0.00 in0.0 mm 0.00 in0.0 mm 0.00 in0.0 mm
12:56 AM 55.2°F12.9°C 49.7°F9.8°C 82% 2.0 mph SW3.2 kmh SW 3.3 mph5.3 kmh 29.93 in1013.5 mb 0.00 in0.0 mm 0.00 in0.0 mm 0.00 in0.0 mm
01:01 AM 55.0°F12.8°C 49.5°F9.7°C 83% 2.5 mph SSW4.0 kmh SSW 3.3 mph5.3 kmh 29.93 in1013.5 mb 0.00 in0.0 mm 0.00 in0.0 mm 0.00 in0.0 mm
01:06 AM 55.0°F12.8°C 49.5°F9.7°C 83% 3.0 mph SSW4.8 kmh SSW 3.1 mph5.0 kmh 29.93 in1013.5 mb 0.00 in0.0 mm 0.00 in0.0 mm 0.00 in0.0 mm
01:11 AM 55.2°F12.9°C 50.4°F10.2°C 84% 4.4 mph WSW7.1 kmh WSW 4.4 mph7.1 kmh 29.93 in1013.5 mb 0.00 in0.0 mm 0.00 in0.0 mm 0.00 in0.0 mm
01:16 AM 55.4°F13.0°C 50.2°F10.1°C 83% 3.0 mph SSW4.8 kmh SSW 4.4 mph7.1 kmh 29.94 in1013.9 mb 0.00 in0.0 mm 0.00 in0.0 mm 0.00 in0.0 mm
01:21 AM 55.2°F12.9°C 50.0°F10.0°C 83% 1.9 mph S3.1 kmh S 3.3 mph5.3 kmh 29.94 in1013.9 mb 0.00 in0.0 mm 0.00 in0.0 mm 0.00 in0.0 mm
01:26 AM 55.2°F12.9°C 50.0°F10.0°C 83% 3.1 mph S5.0 kmh S 3.3 mph5.3 kmh 29.94 in1013.9 mb 0.00 in0.0 mm 0.00 in0.0 mm 0.00 in0.0 mm
01:31 AM 55.2°F12.9°C 50.0°F10.0°C 83% 0.9 mph SW1.4 kmh SW 3.3 mph5.3 kmh 29.94 in1013.9 mb 0.00 in0.0 mm 0.00 in0.0 mm 0.00 in0.0 mm
01:36 AM 55.0°F12.8°C 49.9°F9.9°C 83% 2.3 mph SSW3.7 kmh SSW 3.5 mph5.6 kmh 29.93 in1013.5 mb 0.00 in0.0 mm 0.00 in0.0 mm 0.00 in0.0 mm
01:41 AM 55.0°F12.8°C 49.9°F9.9°C 83% 2.0 mph SW3.2 kmh SW 3.5 mph5.6 kmh 29.94 in1013.9 mb 0.00 in0.0 mm 0.00 in0.0 mm 0.00 in0.0 mm
01:46 AM 55.0°F12.8°C 49.9°F9.9°C 83% 1.6 mph SSW2.6 kmh SSW 3.5 mph5.6 kmh 29.93 in1013.5 mb 0.00 in0.0 mm 0.00 in0.0 mm 0.00 in0.0 mm
01:51 AM 55.0°F12.8°C 49.9°F9.9°C 84% 2.3 mph SW3.7 kmh SW 2.6 mph4.2 kmh 29.94 in1013.9 mb 0.00 in0.0 mm 0.00 in0.0 mm 0.00 in0.0 mm
01:56 AM 54.6°F12.6°C 49.9°F9.9°C 84% 2.2 mph SSW3.5 kmh SSW 2.6 mph4.2 kmh 29.94 in1013.9 mb 0.00 in0.0 mm 0.00 in0.0 mm 0.00 in0.0 mm
02:01 AM 54.6°F12.6°C 49.9°F9.9°C 84% 3.2 mph SSW5.1 kmh SSW 3.3 mph5.3 kmh 29.94 in1013.9 mb 0.00 in0.0 mm 0.00 in0.0 mm 0.00 in0.0 mm
02:06 AM 54.6°F12.6°C 49.9°F9.9°C 84% 2.1 mph SSW3.4 kmh SSW 3.3 mph5.3 kmh 29.93 in1013.5 mb 0.00 in0.0 mm 0.00 in0.0 mm 0.00 in0.0 mm
02:11 AM 54.6°F12.6°C 49.9°F9.9°C 84% 3.6 mph SSW5.8 kmh SSW 3.8 mph6.1 kmh 29.94 in1013.9 mb 0.00 in0.0 mm 0.00 in0.0 mm 0.00 in0.0 mm
02:16 AM 54.6°F12.6°C 49.9°F9.9°C 84% 3.5 mph S5.6 kmh S 3.8 mph6.1 kmh 29.93 in1013.5 mb 0.00 in0.0 mm 0.00 in0.0 mm 0.00 in0.0 mm
02:21 AM 54.6°F12.6°C 49.9°F9.9°C 84% 1.8 mph SSW2.9 kmh SSW 3.8 mph6.1 kmh 29.94 in1013.9 mb 0.00 in0.0 mm 0.00 in0.0 mm 0.00 in0.0 mm
02:26 AM 54.6°F12.6°C 49.9°F9.9°C 84% 2.1 mph SSW3.4 kmh SSW 2.6 mph4.2 kmh 29.93 in1013.5 mb 0.00 in0.0 mm 0.00 in0.0 mm 0.00 in0.0 mm
02:31 AM 54.5°F12.5°C 49.7°F9.8°C 84% 4.7 mph SSW7.6 kmh SSW 5.3 mph8.5 kmh 29.93 in1013.5 mb 0.00 in0.0 mm 0.00 in0.0 mm 0.00 in0.0 mm
02:36 AM 54.5°F12.5°C 49.7°F9.8°C 84% 3.6 mph SSW5.8 kmh SSW 5.3 mph8.5 kmh 29.93 in1013.5 mb 0.00 in0.0 mm 0.00 in0.0 mm 0.00 in0.0 mm
02:41 AM 54.6°F12.6°C 49.9°F9.9°C 84% 3.3 mph SSW5.3 kmh SSW 5.3 mph8.5 kmh 29.93 in1013.5 mb 0.00 in0.0 mm 0.00 in0.0 mm 0.00 in0.0 mm
02:46 AM 54.6°F12.6°C 49.9°F9.9°C 84% 2.0 mph SSW3.2 kmh SSW 4.0 mph6.4 kmh 29.93 in1013.5 mb 0.00 in0.0 mm 0.00 in0.0 mm 0.00 in0.0 mm
02:51 AM 55.0°F12.8°C 50.2°F10.1°C 84% 2.0 mph SW3.2 kmh SW 2.4 mph3.9 kmh 29.93 in1013.5 mb 0.00 in0.0 mm 0.00 in0.0 mm 0.00 in0.0 mm
02:56 AM 55.0°F12.8°C 50.2°F10.1°C 84% 2.0 mph SSW3.2 kmh SSW 2.0 mph3.2 kmh 29.93 in1013.5 mb 0.00 in0.0 mm 0.00 in0.0 mm 0.00 in0.0 mm
03:01 AM 54.3°F12.4°C 49.5°F9.7°C 84% 2.0 mph SSW3.2 kmh SSW 3.1 mph5.0 kmh 29.93 in1013.5 mb 0.00 in0.0 mm 0.00 in0.0 mm 0.00 in0.0 mm
03:06 AM 53.9°F12.2°C 49.2°F9.6°C 84% 2.3 mph S3.7 kmh S 3.1 mph5.0 kmh 29.93 in1013.5 mb 0.00 in0.0 mm 0.00 in0.0 mm 0.00 in0.0 mm
03:11 AM 53.9°F12.2°C 49.2°F9.6°C 84% 2.4 mph SSW3.9 kmh SSW 3.1 mph5.0 kmh 29.93 in1013.5 mb 0.00 in0.0 mm 0.00 in0.0 mm 0.00 in0.0 mm
03:16 AM 53.9°F12.2°C 49.2°F9.6°C 84% 3.5 mph S5.6 kmh S 3.5 mph5.6 kmh 29.93 in1013.5 mb 0.00 in0.0 mm 0.00 in0.0 mm 0.00 in0.0 mm
03:21 AM 54.1°F12.3°C 49.7°F9.8°C 85% 2.8 mph SSW4.5 kmh SSW 4.2 mph6.8 kmh 29.93 in1013.5 mb 0.00 in0.0 mm 0.00 in0.0 mm 0.00 in0.0 mm
03:26 AM 54.1°F12.3°C 49.7°F9.8°C 85% 1.8 mph SW2.9 kmh SW 4.2 mph6.8 kmh 29.93 in1013.5 mb 0.00 in0.0 mm 0.00 in0.0 mm 0.00 in0.0 mm
03:31 AM 53.9°F12.2°C 49.5°F9.7°C 85% 3.1 mph SSW5.0 kmh SSW 3.5 mph5.6 kmh 29.93 in1013.5 mb 0.00 in0.0 mm 0.00 in0.0 mm 0.00 in0.0 mm
03:36 AM 53.9°F12.2°C 49.5°F9.7°C 85% 1.8 mph SW2.9 kmh SW 3.1 mph5.0 kmh 29.93 in1013.5 mb 0.00 in0.0 mm 0.00 in0.0 mm 0.00 in0.0 mm
03:41 AM 53.7°F12.1°C 49.3°F9.6°C 85% 1.8 mph SSW2.9 kmh SSW 2.4 mph3.9 kmh 29.93 in1013.5 mb 0.00 in0.0 mm 0.00 in0.0 mm 0.00 in0.0 mm
03:46 AM 53.6°F12.0°C 49.1°F9.5°C 85% Calm Calm 2.4 mph3.9 kmh 29.93 in1013.5 mb 0.00 in0.0 mm 0.00 in0.0 mm 0.00 in0.0 mm
03:51 AM 53.2°F11.8°C 48.8°F9.3°C 85% Calm Calm 1.5 mph2.4 kmh 29.93 in1013.5 mb 0.00 in0.0 mm 0.00 in0.0 mm 0.00 in0.0 mm
03:56 AM 52.8°F11.6°C 48.4°F9.1°C 85% 1.1 mph SW1.8 kmh SW 2.2 mph3.5 kmh 29.93 in1013.5 mb 0.00 in0.0 mm 0.00 in0.0 mm 0.00 in0.0 mm
04:01 AM 53.2°F11.8°C 49.1°F9.5°C 86% 2.2 mph SSW3.5 kmh SSW 2.2 mph3.5 kmh 29.93 in1013.5 mb 0.00 in0.0 mm 0.00 in0.0 mm 0.00 in0.0 mm
04:06 AM 54.5°F12.5°C 50.3°F10.2°C 86% 2.6 mph SSW4.2 kmh SSW 3.5 mph5.6 kmh 29.93 in1013.5 mb 0.00 in0.0 mm 0.00 in0.0 mm 0.00 in0.0 mm
04:11 AM 54.6°F12.6°C 49.9°F9.9°C 84% 3.5 mph SSW5.6 kmh SSW 4.0 mph6.4 kmh 29.93 in1013.5 mb 0.00 in0.0 mm 0.00 in0.0 mm 0.00 in0.0 mm
04:16 AM 54.6°F12.6°C 49.9°F9.9°C 84% 3.8 mph SW6.1 kmh SW 4.0 mph6.4 kmh 29.93 in1013.5 mb 0.00 in0.0 mm 0.00 in0.0 mm 0.00 in0.0 mm
04:21 AM 54.3°F12.4°C 49.5°F9.7°C 84% 3.0 mph SSW4.8 kmh SSW 4.6 mph7.4 kmh 29.93 in1013.5 mb 0.00 in0.0 mm 0.00 in0.0 mm 0.00 in0.0 mm
04:26 AM 55.0°F12.8°C 49.9°F9.9°C 83% 2.1 mph SW3.4 kmh SW 4.6 mph7.4 kmh 29.94 in1013.9 mb 0.00 in0.0 mm 0.00 in0.0 mm 0.00 in0.0 mm
04:31 AM 54.6°F12.6°C 49.5°F9.7°C 83% 3.2 mph SSW5.1 kmh SSW 4.6 mph7.4 kmh 29.94 in1013.9 mb 0.00 in0.0 mm 0.00 in0.0 mm 0.00 in0.0 mm
04:36 AM 55.0°F12.8°C 49.5°F9.7°C 82% 2.6 mph SW4.2 kmh SW 3.5 mph5.6 kmh 29.94 in1013.9 mb 0.00 in0.0 mm 0.00 in0.0 mm 0.00 in0.0 mm
04:41 AM 54.1°F12.3°C 48.7°F9.3°C 82% 1.4 mph SW2.3 kmh SW 3.5 mph5.6 kmh 29.94 in1013.9 mb 0.00 in0.0 mm 0.00 in0.0 mm 0.00 in0.0 mm
04:46 AM 53.9°F12.2°C 48.6°F9.2°C 82% 1.4 mph SSW2.3 kmh SSW 1.5 mph2.4 kmh 29.94 in1013.9 mb 0.00 in0.0 mm 0.00 in0.0 mm 0.00 in0.0 mm
04:51 AM 53.7°F12.1°C 48.7°F9.3°C 83% 2.6 mph SW4.2 kmh SW 2.6 mph4.2 kmh 29.94 in1013.9 mb 0.00 in0.0 mm 0.00 in0.0 mm 0.00 in0.0 mm
04:56 AM 54.1°F12.3°C 49.0°F9.4°C 83% 2.4 mph SW3.9 kmh SW 2.6 mph4.2 kmh 29.94 in1013.9 mb 0.00 in0.0 mm 0.00 in0.0 mm 0.00 in0.0 mm
05:01 AM 54.5°F12.5°C 49.4°F9.7°C 83% 3.3 mph SSW5.3 kmh SSW 3.3 mph5.3 kmh 29.94 in1013.9 mb 0.00 in0.0 mm 0.00 in0.0 mm 0.00 in0.0 mm
05:06 AM 54.6°F12.6°C 49.5°F9.7°C 83% 2.2 mph SSW3.5 kmh SSW 3.3 mph5.3 kmh 29.93 in1013.5 mb 0.00 in0.0 mm 0.00 in0.0 mm 0.00 in0.0 mm
05:11 AM 54.3°F12.4°C 49.2°F9.6°C 83% 2.2 mph SSW3.5 kmh SSW 3.3 mph5.3 kmh 29.93 in1013.5 mb 0.00 in0.0 mm 0.00 in0.0 mm 0.00 in0.0 mm
05:16 AM 54.1°F12.3°C 49.0°F9.4°C 83% 2.0 mph SSW3.2 kmh SSW 2.4 mph3.9 kmh 29.93 in1013.5 mb 0.00 in0.0 mm 0.00 in0.0 mm 0.00 in0.0 mm
05:21 AM 53.4°F11.9°C 48.4°F9.1°C 83% 0.8 mph SW1.3 kmh SW 2.2 mph3.5 kmh 29.93 in1013.5 mb 0.00 in0.0 mm 0.00 in0.0 mm 0.00 in0.0 mm
05:26 AM 53.6°F12.0°C 48.8°F9.3°C 84% 2.2 mph SSW3.5 kmh SSW 2.4 mph3.9 kmh 29.93 in1013.5 mb 0.00 in0.0 mm 0.00 in0.0 mm 0.00 in0.0 mm
05:31 AM 53.7°F12.1°C 49.0°F9.4°C 84% 2.3 mph SSW3.7 kmh SSW 2.4 mph3.9 kmh 29.93 in1013.5 mb 0.00 in0.0 mm 0.00 in0.0 mm 0.00 in0.0 mm
05:36 AM 53.7°F12.1°C 49.0°F9.4°C 84% 2.8 mph SW4.5 kmh SW 2.9 mph4.7 kmh 29.93 in1013.5 mb 0.00 in0.0 mm 0.00 in0.0 mm 0.00 in0.0 mm
05:41 AM 54.1°F12.3°C 49.3°F9.6°C 84% 2.9 mph SSW4.7 kmh SSW 3.3 mph5.3 kmh 29.93 in1013.5 mb 0.00 in0.0 mm 0.00 in0.0 mm 0.00 in0.0 mm
05:46 AM 54.3°F12.4°C 49.5°F9.7°C 84% 2.0 mph SSW3.2 kmh SSW 3.3 mph5.3 kmh 29.93 in1013.5 mb 0.00 in0.0 mm 0.00 in0.0 mm 0.00 in0.0 mm
05:51 AM 54.1°F12.3°C 49.0°F9.4°C 83% 3.4 mph SSW5.5 kmh SSW 3.5 mph5.6 kmh 29.93 in1013.5 mb 0.00 in0.0 mm 0.00 in0.0 mm 0.00 in0.0 mm
05:56 AM 54.3°F12.4°C 49.5°F9.7°C 84% 2.8 mph SW4.5 kmh SW 3.5 mph5.6 kmh 29.93 in1013.5 mb 0.00 in0.0 mm 0.00 in0.0 mm 0.00 in0.0 mm
06:01 AM 54.6°F12.6°C 49.9°F9.9°C 84% 2.2 mph SSW3.5 kmh SSW 2.9 mph4.7 kmh 29.93 in1013.5 mb 0.00 in0.0 mm 0.00 in0.0 mm 0.00 in0.0 mm
06:06 AM 54.8°F12.7°C 49.7°F9.8°C 83% 3.5 mph SSW5.6 kmh SSW 4.0 mph6.4 kmh 29.93 in1013.5 mb 0.00 in0.0 mm 0.00 in0.0 mm 0.00 in0.0 mm
06:11 AM 54.6°F12.6°C 49.5°F9.7°C 83% 4.6 mph SSW7.4 kmh SSW 5.3 mph8.5 kmh 29.93 in1013.5 mb 0.00 in0.0 mm 0.00 in0.0 mm 0.00 in0.0 mm
06:16 AM 54.5°F12.5°C 49.4°F9.7°C 83% 3.9 mph SSW6.3 kmh SSW 5.3 mph8.5 kmh 29.93 in1013.5 mb 0.00 in0.0 mm 0.00 in0.0 mm 0.00 in0.0 mm
06:21 AM 54.5°F12.5°C 49.4°F9.7°C 83% 2.2 mph SSW3.5 kmh SSW 4.0 mph6.4 kmh 29.93 in1013.5 mb 0.00 in0.0 mm 0.00 in0.0 mm 0.00 in0.0 mm
06:26 AM 54.3°F12.4°C 49.2°F9.6°C 83% 1.7 mph SSW2.7 kmh SSW 4.0 mph6.4 kmh 29.93 in1013.5 mb 0.00 in0.0 mm 0.00 in0.0 mm 0.00 in0.0 mm
06:31 AM 54.3°F12.4°C 49.2°F9.6°C 83% 1.4 mph S2.3 kmh S 2.4 mph3.9 kmh 29.93 in1013.5 mb 0.00 in0.0 mm 0.00 in0.0 mm 0.00 in0.0 mm
06:36 AM 54.3°F12.4°C 49.2°F9.6°C 83% 2.9 mph SSW4.7 kmh SSW 3.5 mph5.6 kmh 29.93 in1013.5 mb 0.00 in0.0 mm 0.00 in0.0 mm 0.00 in0.0 mm
06:41 AM 54.5°F12.5°C 49.4°F9.7°C 83% 2.9 mph SSW4.7 kmh SSW 4.0 mph6.4 kmh 29.94 in1013.9 mb 0.00 in0.0 mm 0.00 in0.0 mm 0.00 in0.0 mm
06:46 AM 54.6°F12.6°C 49.5°F9.7°C 83% 2.3 mph S3.7 kmh S 4.0 mph6.4 kmh 29.94 in1013.9 mb 0.00 in0.0 mm 0.00 in0.0 mm 0.00 in0.0 mm
06:51 AM 54.6°F12.6°C 49.5°F9.7°C 83% 2.8 mph S4.5 kmh S 4.0 mph6.4 kmh 29.94 in1013.9 mb 0.00 in0.0 mm 0.00 in0.0 mm 0.00 in0.0 mm
06:56 AM 55.0°F12.8°C 49.9°F9.9°C 83% 2.0 mph SSW3.2 kmh SSW 2.9 mph4.7 kmh 29.95 in1014.2 mb 0.00 in0.0 mm 0.00 in0.0 mm 0.00 in0.0 mm
07:01 AM 55.0°F12.8°C 49.9°F9.9°C 83% 1.9 mph SSW3.1 kmh SSW 2.9 mph4.7 kmh 29.95 in1014.2 mb 0.00 in0.0 mm 0.00 in0.0 mm 0.00 in0.0 mm
07:06 AM 55.2°F12.9°C 50.0°F10.0°C 83% 1.1 mph SSW1.8 kmh SSW 2.6 mph4.2 kmh 29.95 in1014.2 mb 0.00 in0.0 mm 0.00 in0.0 mm 0.00 in0.0 mm
07:11 AM 55.0°F12.8°C 49.9°F9.9°C 83% 2.2 mph SSW3.5 kmh SSW 2.4 mph3.9 kmh 29.95 in1014.2 mb 0.00 in0.0 mm 0.00 in0.0 mm 0.00 in0.0 mm
07:16 AM 55.2°F12.9°C 50.0°F10.0°C 83% 1.7 mph SSW2.7 kmh SSW 2.4 mph3.9 kmh 29.96 in1014.6 mb 0.00 in0.0 mm 0.00 in0.0 mm 0.00 in0.0 mm
07:21 AM 55.2°F12.9°C 50.0°F10.0°C 83% 3.0 mph SSW4.8 kmh SSW 3.1 mph5.0 kmh 29.95 in1014.2 mb 0.00 in0.0 mm 0.00 in0.0 mm 0.00 in0.0 mm
07:26 AM 55.4°F13.0°C 50.2°F10.1°C 83% 2.8 mph SSW4.5 kmh SSW 3.1 mph5.0 kmh 29.96 in1014.6 mb 0.00 in0.0 mm 0.00 in0.0 mm 0.00 in0.0 mm
07:31 AM 55.5°F13.1°C 50.4°F10.2°C 83% 3.1 mph SSW5.0 kmh SSW 3.8 mph6.1 kmh 29.96 in1014.6 mb 0.00 in0.0 mm 0.00 in0.0 mm 0.00 in0.0 mm
07:37 AM 55.7°F13.2°C 50.6°F10.3°C 82% 3.2 mph S5.1 kmh S 3.8 mph6.1 kmh 29.96 in1014.6 mb 0.00 in0.0 mm 0.00 in0.0 mm 0.00 in0.0 mm
07:42 AM 56.3°F13.5°C 50.8°F10.4°C 82% 3.1 mph SSW5.0 kmh SSW 3.8 mph6.1 kmh 29.96 in1014.6 mb 0.00 in0.0 mm 0.00 in0.0 mm 0.00 in0.0 mm
07:47 AM 56.8°F13.8°C 51.3°F10.7°C 82% 2.8 mph SSW4.5 kmh SSW 3.8 mph6.1 kmh 29.96 in1014.6 mb 0.00 in0.0 mm 0.00 in0.0 mm 0.00 in0.0 mm
07:51 AM 57.0°F13.9°C 51.2°F10.7°C 81% 2.5 mph S4.0 kmh S 3.8 mph6.1 kmh 29.96 in1014.6 mb 0.00 in0.0 mm 0.00 in0.0 mm 0.00 in0.0 mm
07:56 AM 57.5°F14.2°C 51.7°F10.9°C 81% 4.0 mph SSW6.4 kmh SSW 4.9 mph7.9 kmh 29.96 in1014.6 mb 0.00 in0.0 mm 0.00 in0.0 mm 0.00 in0.0 mm
08:02 AM 57.7°F14.3°C 51.6°F10.9°C 80% 2.4 mph SW3.9 kmh SW 4.9 mph7.9 kmh 29.97 in1014.9 mb 0.00 in0.0 mm 0.00 in0.0 mm 0.00 in0.0 mm
08:07 AM 58.4°F14.7°C 51.9°F11.1°C 79% 3.3 mph SSW5.3 kmh SSW 5.8 mph9.3 kmh 29.96 in1014.6 mb 0.00 in0.0 mm 0.00 in0.0 mm 0.00 in0.0 mm
08:12 AM 58.8°F14.9°C 52.3°F11.3°C 79% 2.1 mph SW3.4 kmh SW 5.8 mph9.3 kmh 29.96 in1014.6 mb 0.00 in0.0 mm 0.00 in0.0 mm 0.00 in0.0 mm
08:17 AM 58.8°F14.9°C 52.3°F11.3°C 79% 1.3 mph SSW2.1 kmh SSW 2.2 mph3.5 kmh 29.96 in1014.6 mb 0.00 in0.0 mm 0.00 in0.0 mm 0.00 in0.0 mm
08:22 AM 59.1°F15.1°C 52.3°F11.3°C 78% 1.4 mph SSW2.3 kmh SSW 2.2 mph3.5 kmh 29.96 in1014.6 mb 0.00 in0.0 mm 0.00 in0.0 mm 0.00 in0.0 mm
08:27 AM 59.5°F15.3°C 52.7°F11.5°C 78% 1.6 mph SSW2.6 kmh SSW 2.2 mph3.5 kmh 29.96 in1014.6 mb 0.00 in0.0 mm 0.00 in0.0 mm 0.00 in0.0 mm
08:32 AM 59.7°F15.4°C 52.8°F11.6°C 78% 1.5 mph SW2.4 kmh SW 2.0 mph3.2 kmh 29.96 in1014.6 mb 0.00 in0.0 mm 0.00 in0.0 mm 0.00 in0.0 mm
08:37 AM 60.2°F15.7°C 53.0°F11.7°C 77% 3.7 mph SW6.0 kmh SW 4.9 mph7.9 kmh 29.96 in1014.6 mb 0.00 in0.0 mm 0.00 in0.0 mm 0.00 in0.0 mm
08:42 AM 60.4°F15.8°C 52.8°F11.6°C 76% 2.9 mph S4.7 kmh S 4.9 mph7.9 kmh 29.96 in1014.6 mb 0.00 in0.0 mm 0.00 in0.0 mm 0.00 in0.0 mm
08:47 AM 60.4°F15.8°C 52.8°F11.6°C 76% 4.2 mph SSW6.8 kmh SSW 4.9 mph7.9 kmh 29.96 in1014.6 mb 0.00 in0.0 mm 0.00 in0.0 mm 0.00 in0.0 mm
08:52 AM 60.8°F16.0°C 53.2°F11.8°C 76% 2.3 mph SSW3.7 kmh SSW 4.6 mph7.4 kmh 29.96 in1014.6 mb 0.00 in0.0 mm 0.00 in0.0 mm 0.00 in0.0 mm
08:57 AM 60.9°F16.1°C 53.4°F11.9°C 75% 3.0 mph SSW4.8 kmh SSW 4.2 mph6.8 kmh 29.96 in1014.6 mb 0.00 in0.0 mm 0.00 in0.0 mm 0.00 in0.0 mm
09:02 AM 61.3°F16.3°C 53.3°F11.8°C 75% 2.4 mph SW3.9 kmh SW 3.3 mph5.3 kmh 29.96 in1014.6 mb 0.00 in0.0 mm 0.00 in0.0 mm 0.00 in0.0 mm
09:07 AM 61.8°F16.6°C 53.4°F11.9°C 74% 2.0 mph SW3.2 kmh SW 3.3 mph5.3 kmh 29.96 in1014.6 mb 0.00 in0.0 mm 0.00 in0.0 mm 0.00 in0.0 mm
09:12 AM 62.2°F16.8°C 53.8°F12.1°C 74% 1.2 mph S1.9 kmh S 3.1 mph5.0 kmh 29.96 in1014.6 mb 0.00 in0.0 mm 0.00 in0.0 mm 0.00 in0.0 mm
09:17 AM 62.7°F17.1°C 53.9°F12.2°C 73% 1.4 mph SSW2.3 kmh SSW 1.5 mph2.4 kmh 29.97 in1014.9 mb 0.00 in0.0 mm 0.00 in0.0 mm 0.00 in0.0 mm
09:22 AM 63.1°F17.3°C 53.9°F12.2°C 71% 3.8 mph SW6.1 kmh SW 3.8 mph6.1 kmh 29.96 in1014.6 mb 0.00 in0.0 mm 0.00 in0.0 mm 0.00 in0.0 mm
09:27 AM 63.3°F17.4°C 53.7°F12.1°C 70% 2.6 mph SW4.2 kmh SW 3.8 mph6.1 kmh 29.96 in1014.6 mb 0.00 in0.0 mm 0.00 in0.0 mm 0.00 in0.0 mm
09:32 AM 63.6°F17.6°C 53.7°F12.1°C 70% 3.3 mph SW5.3 kmh SW 3.8 mph6.1 kmh 29.96 in1014.6 mb 0.00 in0.0 mm 0.00 in0.0 mm 0.00 in0.0 mm
09:37 AM 64.2°F17.9°C 53.8°F12.1°C 69% 3.5 mph SSW5.6 kmh SSW 4.0 mph6.4 kmh 29.96 in1014.6 mb 0.00 in0.0 mm 0.00 in0.0 mm 0.00 in0.0 mm
09:42 AM 64.2°F17.9°C 53.4°F11.9°C 68% 2.6 mph S4.2 kmh S 4.0 mph6.4 kmh 29.96 in1014.6 mb 0.00 in0.0 mm 0.00 in0.0 mm 0.00 in0.0 mm
09:47 AM 64.4°F18.0°C 53.6°F12.0°C 68% 3.7 mph SSW6.0 kmh SSW 4.2 mph6.8 kmh 29.96 in1014.6 mb 0.00 in0.0 mm 0.00 in0.0 mm 0.00 in0.0 mm
09:52 AM 64.9°F18.3°C 53.7°F12.1°C 67% 1.2 mph SSW1.9 kmh SSW 4.2 mph6.8 kmh 29.96 in1014.6 mb 0.00 in0.0 mm 0.00 in0.0 mm 0.00 in0.0 mm
09:57 AM 65.3°F18.5°C 54.0°F12.2°C 67% 2.1 mph SW3.4 kmh SW 3.5 mph5.6 kmh 29.96 in1014.6 mb 0.00 in0.0 mm 0.00 in0.0 mm 0.00 in0.0 mm
10:02 AM 65.6°F18.7°C 53.9°F12.2°C 66% 2.0 mph SSW3.2 kmh SSW 2.6 mph4.2 kmh 29.97 in1014.9 mb 0.00 in0.0 mm 0.00 in0.0 mm 0.00 in0.0 mm
10:07 AM 65.8°F18.8°C 53.7°F12.1°C 65% 4.7 mph SW7.6 kmh SW 4.9 mph7.9 kmh 29.96 in1014.6 mb 0.00 in0.0 mm 0.00 in0.0 mm 0.00 in0.0 mm
10:12 AM 66.0°F18.9°C 53.8°F12.1°C 65% 2.0 mph SW3.2 kmh SW 4.9 mph7.9 kmh 29.96 in1014.6 mb 0.00 in0.0 mm 0.00 in0.0 mm 0.00 in0.0 mm
10:17 AM 66.0°F18.9°C 53.8°F12.1°C 64% 3.5 mph SSW5.6 kmh SSW 3.8 mph6.1 kmh 29.96 in1014.6 mb 0.00 in0.0 mm 0.00 in0.0 mm 0.00 in0.0 mm
10:22 AM 66.7°F19.3°C 54.1°F12.3°C 63% 1.3 mph S2.1 kmh S 3.8 mph6.1 kmh 29.96 in1014.6 mb 0.00 in0.0 mm 0.00 in0.0 mm 0.00 in0.0 mm
10:27 AM 67.2°F19.6°C 53.8°F12.1°C 62% 1.2 mph S1.9 kmh S 3.3 mph5.3 kmh 29.96 in1014.6 mb 0.00 in0.0 mm 0.00 in0.0 mm 0.00 in0.0 mm
10:32 AM 67.2°F19.6°C 53.8°F12.1°C 61% 3.5 mph SW5.6 kmh SW 3.5 mph5.6 kmh 29.96 in1014.6 mb 0.00 in0.0 mm 0.00 in0.0 mm 0.00 in0.0 mm
10:37 AM 67.4°F19.7°C 53.5°F11.9°C 61% Calm Calm 3.5 mph5.6 kmh 29.96 in1014.6 mb 0.00 in0.0 mm 0.00 in0.0 mm 0.00 in0.0 mm
10:42 AM 67.6°F19.8°C 52.7°F11.5°C 59% 0.4 mph NNW0.6 kmh NNW 4.6 mph7.4 kmh 29.95 in1014.2 mb 0.00 in0.0 mm 0.00 in0.0 mm 0.00 in0.0 mm
10:47 AM 68.1°F20.1°C 53.7°F12.1°C 60% 1.8 mph S2.9 kmh S 4.6 mph7.4 kmh 29.95 in1014.2 mb 0.00 in0.0 mm 0.00 in0.0 mm 0.00 in0.0 mm
10:52 AM 68.5°F20.3°C 53.6°F12.0°C 59% Calm Calm 3.3 mph5.3 kmh 29.95 in1014.2 mb 0.00 in0.0 mm 0.00 in0.0 mm 0.00 in0.0 mm
10:57 AM 68.3°F20.2°C 52.4°F11.3°C 57% 3.8 mph SSW6.1 kmh SSW 5.1 mph8.2 kmh 29.96 in1014.6 mb 0.00 in0.0 mm 0.00 in0.0 mm 0.00 in0.0 mm
11:02 AM 68.5°F20.3°C 52.6°F11.4°C 57% 1.7 mph WSW2.7 kmh WSW 5.1 mph8.2 kmh 29.96 in1014.6 mb 0.00 in0.0 mm 0.00 in0.0 mm 0.00 in0.0 mm
11:07 AM 68.9°F20.5°C 53.0°F11.7°C 57% 1.1 mph SSW1.8 kmh SSW 3.1 mph5.0 kmh 29.96 in1014.6 mb 0.00 in0.0 mm 0.00 in0.0 mm 0.00 in0.0 mm
11:12 AM 69.0°F20.6°C 52.6°F11.4°C 56% 2.0 mph WNW3.2 kmh WNW 3.1 mph5.0 kmh 29.96 in1014.6 mb 0.00 in0.0 mm 0.00 in0.0 mm 0.00 in0.0 mm
11:17 AM 69.4°F20.8°C 52.5°F11.4°C 56% 2.2 mph SSW3.5 kmh SSW 2.2 mph3.5 kmh 29.96 in1014.6 mb 0.00 in0.0 mm 0.00 in0.0 mm 0.00 in0.0 mm
11:22 AM 70.3°F21.3°C 53.3°F11.8°C 55% 2.2 mph SW3.5 kmh SW 2.2 mph3.5 kmh 29.96 in1014.6 mb 0.00 in0.0 mm 0.00 in0.0 mm 0.00 in0.0 mm
11:27 AM 69.6°F20.9°C 52.7°F11.5°C 55% 1.9 mph SSW3.1 kmh SSW 3.5 mph5.6 kmh 29.96 in1014.6 mb 0.00 in0.0 mm 0.00 in0.0 mm 0.00 in0.0 mm
11:32 AM 69.6°F20.9°C 52.7°F11.5°C 55% 1.3 mph SSW2.1 kmh SSW 3.5 mph5.6 kmh 29.95 in1014.2 mb 0.00 in0.0 mm 0.00 in0.0 mm 0.00 in0.0 mm
11:37 AM 70.5°F21.4°C 53.5°F11.9°C 55% Calm Calm 2.9 mph4.7 kmh 29.95 in1014.2 mb 0.00 in0.0 mm 0.00 in0.0 mm 0.00 in0.0 mm
11:42 AM 69.9°F21.1°C 52.5°F11.4°C 54% 2.5 mph NW4.0 kmh NW 3.3 mph5.3 kmh 29.95 in1014.2 mb 0.00 in0.0 mm 0.00 in0.0 mm 0.00 in0.0 mm
11:47 AM 70.5°F21.4°C 53.0°F11.7°C 54% 2.2 mph W3.5 kmh W 3.3 mph5.3 kmh 29.95 in1014.2 mb 0.00 in0.0 mm 0.00 in0.0 mm 0.00 in0.0 mm
11:52 AM 71.2°F21.8°C 53.1°F11.7°C 53% 2.6 mph NNW4.2 kmh NNW 2.6 mph4.2 kmh 29.94 in1013.9 mb 0.00 in0.0 mm 0.00 in0.0 mm 0.00 in0.0 mm
11:57 AM 71.9°F22.2°C 53.3°F11.8°C 52% 0.6 mph W1.0 kmh W 2.6 mph4.2 kmh 29.94 in1013.9 mb 0.00 in0.0 mm 0.00 in0.0 mm 0.00 in0.0 mm
12:02 PM 71.4°F21.9°C 52.3°F11.3°C 51% 2.4 mph SSW3.9 kmh SSW 2.6 mph4.2 kmh 29.94 in1013.9 mb 0.00 in0.0 mm 0.00 in0.0 mm 0.00 in0.0 mm
12:07 PM 71.4°F21.9°C 52.8°F11.6°C 52% 1.3 mph WSW2.1 kmh WSW 2.4 mph3.9 kmh 29.94 in1013.9 mb 0.00 in0.0 mm 0.00 in0.0 mm 0.00 in0.0 mm
12:12 PM 70.5°F21.4°C 51.5°F10.8°C 51% 3.0 mph E4.8 kmh E 4.6 mph7.4 kmh 29.94 in1013.9 mb 0.00 in0.0 mm 0.00 in0.0 mm 0.00 in0.0 mm
12:17 PM 70.8°F21.6°C 52.3°F11.3°C 52% 1.6 mph SSE2.6 kmh SSE 4.6 mph7.4 kmh 29.94 in1013.9 mb 0.00 in0.0 mm 0.00 in0.0 mm 0.00 in0.0 mm
12:22 PM 70.5°F21.4°C 51.0°F10.6°C 50% 3.2 mph SSW5.1 kmh SSW 5.1 mph8.2 kmh 29.94 in1013.9 mb 0.00 in0.0 mm 0.00 in0.0 mm 0.00 in0.0 mm
12:27 PM 71.4°F21.9°C 52.3°F11.3°C 51% 0.6 mph ESE1.0 kmh ESE 5.1 mph8.2 kmh 29.93 in1013.5 mb 0.00 in0.0 mm 0.00 in0.0 mm 0.00 in0.0 mm
12:32 PM 72.6°F22.6°C 52.3°F11.3°C 49% 0.4 mph SW0.6 kmh SW 3.1 mph5.0 kmh 29.93 in1013.5 mb 0.00 in0.0 mm 0.00 in0.0 mm 0.00 in0.0 mm
12:37 PM 72.6°F22.6°C 52.3°F11.3°C 49% 1.5 mph ENE2.4 kmh ENE 1.5 mph2.4 kmh 29.93 in1013.5 mb 0.00 in0.0 mm 0.00 in0.0 mm 0.00 in0.0 mm
12:42 PM 71.7°F22.1°C 51.5°F10.8°C 49% 1.2 mph SW1.9 kmh SW 5.1 mph8.2 kmh 29.93 in1013.5 mb 0.00 in0.0 mm 0.00 in0.0 mm 0.00 in0.0 mm
12:47 PM 71.6°F22.0°C 51.9°F11.1°C 50% 1.1 mph ENE1.8 kmh ENE 5.1 mph8.2 kmh 29.93 in1013.5 mb 0.00 in0.0 mm 0.00 in0.0 mm 0.00 in0.0 mm
12:52 PM 71.6°F22.0°C 50.7°F10.4°C 48% 2.4 mph SSE3.9 kmh SSE 5.1 mph8.2 kmh 29.93 in1013.5 mb 0.00 in0.0 mm 0.00 in0.0 mm 0.00 in0.0 mm
12:57 PM 71.4°F21.9°C 50.6°F10.3°C 48% 3.1 mph NE5.0 kmh NE 3.1 mph5.0 kmh 29.93 in1013.5 mb 0.00 in0.0 mm 0.00 in0.0 mm 0.00 in0.0 mm
01:02 PM 71.6°F22.0°C 51.3°F10.7°C 49% 3.3 mph NNE5.3 kmh NNE 3.3 mph5.3 kmh 29.93 in1013.5 mb 0.00 in0.0 mm 0.00 in0.0 mm 0.00 in0.0 mm
01:07 PM 71.6°F22.0°C 50.7°F10.4°C 48% 1.7 mph 2.7 kmh 3.3 mph5.3 kmh 29.93 in1013.5 mb 0.00 in0.0 mm 0.00 in0.0 mm 0.00 in0.0 mm
01:12 PM 72.1°F22.3°C 50.6°F10.3°C 47% Calm Calm 3.3 mph5.3 kmh 29.92 in1013.2 mb 0.00 in0.0 mm 0.00 in0.0 mm 0.00 in0.0 mm
01:17 PM 73.0°F22.8°C 52.0°F11.1°C 48% Calm Calm -- 29.92 in1013.2 mb 0.00 in0.0 mm 0.00 in0.0 mm 0.00 in0.0 mm
01:22 PM 73.2°F22.9°C 52.2°F11.2°C 48% Calm Calm -- 29.92 in1013.2 mb 0.00 in0.0 mm 0.00 in0.0 mm 0.00 in0.0 mm
01:27 PM 73.0°F22.8°C 52.0°F11.1°C 48% 5.1 mph NW8.2 kmh NW 5.8 mph9.3 kmh 29.92 in1013.2 mb 0.00 in0.0 mm 0.00 in0.0 mm 0.00 in0.0 mm
01:32 PM 72.6°F22.6°C 52.3°F11.3°C 50% 0.9 mph WNW1.4 kmh WNW 5.8 mph9.3 kmh 29.92 in1013.2 mb 0.00 in0.0 mm 0.00 in0.0 mm 0.00 in0.0 mm
01:37 PM 72.3°F22.4°C 53.1°F11.7°C 51% 2.9 mph N4.7 kmh N 3.3 mph5.3 kmh 29.92 in1013.2 mb 0.00 in0.0 mm 0.00 in0.0 mm 0.00 in0.0 mm
01:42 PM 71.7°F22.1°C 52.6°F11.4°C 52% 2.9 mph NNE4.7 kmh NNE 3.5 mph5.6 kmh 29.92 in1013.2 mb 0.00 in0.0 mm 0.00 in0.0 mm 0.00 in0.0 mm
01:47 PM 71.7°F22.1°C 53.1°F11.7°C 52% 1.1 mph NNE1.8 kmh NNE 7.6 mph12.2 kmh 29.92 in1013.2 mb 0.00 in0.0 mm 0.00 in0.0 mm 0.00 in0.0 mm
01:52 PM 71.2°F21.8°C 53.1°F11.7°C 53% 3.3 mph NE5.3 kmh NE 7.6 mph12.2 kmh 29.92 in1013.2 mb 0.00 in0.0 mm 0.00 in0.0 mm 0.00 in0.0 mm
01:57 PM 70.5°F21.4°C 52.5°F11.4°C 53% 6.2 mph NE10.0 kmh NE 8.7 mph14.0 kmh 29.92 in1013.2 mb 0.00 in0.0 mm 0.00 in0.0 mm 0.00 in0.0 mm
02:02 PM 70.1°F21.2°C 52.7°F11.5°C 54% 5.3 mph NE8.5 kmh NE 8.7 mph14.0 kmh 29.92 in1013.2 mb 0.00 in0.0 mm 0.00 in0.0 mm 0.00 in0.0 mm
02:07 PM 70.1°F21.2°C 53.2°F11.8°C 55% 5.3 mph 8.5 kmh 6.4 mph10.3 kmh 29.92 in1013.2 mb 0.00 in0.0 mm 0.00 in0.0 mm 0.00 in0.0 mm
02:12 PM 70.3°F21.3°C 53.3°F11.8°C 55% 3.3 mph NE5.3 kmh NE 5.8 mph9.3 kmh 29.92 in1013.2 mb 0.00 in0.0 mm 0.00 in0.0 mm 0.00 in0.0 mm
02:17 PM 69.9°F21.1°C 53.0°F11.7°C 55% 5.0 mph NE8.0 kmh NE 6.7 mph10.8 kmh 29.92 in1013.2 mb 0.00 in0.0 mm 0.00 in0.0 mm 0.00 in0.0 mm
02:22 PM 69.9°F21.1°C 53.0°F11.7°C 55% 4.2 mph NNE6.8 kmh NNE 6.7 mph10.8 kmh 29.92 in1013.2 mb 0.00 in0.0 mm 0.00 in0.0 mm 0.00 in0.0 mm
02:29 PM 70.1°F21.2°C 53.2°F11.8°C 55% 1.3 mph NE2.1 kmh NE 5.3 mph8.5 kmh 29.92 in1013.2 mb 0.00 in0.0 mm 0.00 in0.0 mm 0.00 in0.0 mm
02:38 PM 69.8°F21.0°C 53.3°F11.8°C 56% 2.4 mph NNE3.9 kmh NNE 9.8 mph15.8 kmh 29.92 in1013.2 mb 0.00 in0.0 mm 0.00 in0.0 mm 0.00 in0.0 mm
02:47 PM 69.6°F20.9°C 53.2°F11.8°C 56% 3.8 mph ENE6.1 kmh ENE 5.1 mph8.2 kmh 29.91 in1012.9 mb 0.00 in0.0 mm 0.00 in0.0 mm 0.00 in0.0 mm
02:56 PM 69.4°F20.8°C 53.5°F11.9°C 57% 3.6 mph NNE5.8 kmh NNE 4.9 mph7.9 kmh 29.92 in1013.2 mb 0.00 in0.0 mm 0.00 in0.0 mm 0.00 in0.0 mm
03:04 PM 68.9°F20.5°C 53.5°F11.9°C 58% 6.8 mph NNE10.9 kmh NNE 7.3 mph11.7 kmh 29.92 in1013.2 mb 0.00 in0.0 mm 0.00 in0.0 mm 0.00 in0.0 mm
03:12 PM 68.7°F20.4°C 53.8°F12.1°C 59% 3.8 mph NE6.1 kmh NE 7.3 mph11.7 kmh 29.91 in1012.9 mb 0.00 in0.0 mm 0.00 in0.0 mm 0.00 in0.0 mm
03:20 PM 68.5°F20.3°C 53.1°F11.7°C 58% 3.7 mph NE6.0 kmh NE 4.9 mph7.9 kmh 29.92 in1013.2 mb 0.00 in0.0 mm 0.00 in0.0 mm 0.00 in0.0 mm
03:28 PM 68.7°F20.4°C 53.3°F11.8°C 58% 1.7 mph NNE2.7 kmh NNE 5.5 mph8.9 kmh 29.92 in1013.2 mb 0.00 in0.0 mm 0.00 in0.0 mm 0.00 in0.0 mm
03:37 PM 68.7°F20.4°C 53.8°F12.1°C 59% 4.8 mph NNE7.7 kmh NNE 4.9 mph7.9 kmh 29.92 in1013.2 mb 0.00 in0.0 mm 0.00 in0.0 mm 0.00 in0.0 mm
03:45 PM 68.5°F20.3°C 54.1°F12.3°C 60% 4.3 mph NNE6.9 kmh NNE 6.7 mph10.8 kmh 29.91 in1012.9 mb 0.00 in0.0 mm 0.00 in0.0 mm 0.00 in0.0 mm
03:53 PM 68.3°F20.2°C 53.9°F12.2°C 60% 3.8 mph NNE6.1 kmh NNE 6.9 mph11.1 kmh 29.91 in1012.9 mb 0.00 in0.0 mm 0.00 in0.0 mm 0.00 in0.0 mm
04:01 PM 68.1°F20.1°C 53.7°F12.1°C 60% 3.4 mph NNE5.5 kmh NNE 5.1 mph8.2 kmh 29.91 in1012.9 mb 0.00 in0.0 mm 0.00 in0.0 mm 0.00 in0.0 mm
04:09 PM 67.8°F19.9°C 54.3°F12.4°C 62% 1.6 mph NE2.6 kmh NE 4.0 mph6.4 kmh 29.91 in1012.9 mb 0.00 in0.0 mm 0.00 in0.0 mm 0.00 in0.0 mm
04:17 PM 67.6°F19.8°C 54.1°F12.3°C 63% 0.6 mph NNE1.0 kmh NNE 2.2 mph3.5 kmh 29.91 in1012.9 mb 0.00 in0.0 mm 0.00 in0.0 mm 0.00 in0.0 mm
04:25 PM 67.2°F19.6°C 54.6°F12.6°C 64% 4.4 mph NE7.1 kmh NE 4.6 mph7.4 kmh 29.91 in1012.9 mb 0.00 in0.0 mm 0.00 in0.0 mm 0.00 in0.0 mm
04:33 PM 66.9°F19.4°C 54.7°F12.6°C 65% 1.5 mph NNE2.4 kmh NNE 4.6 mph7.4 kmh 29.92 in1013.2 mb 0.00 in0.0 mm 0.00 in0.0 mm 0.00 in0.0 mm
04:41 PM 66.3°F19.1°C 55.0°F12.8°C 67% 0.8 mph 1.3 kmh 1.5 mph2.4 kmh 29.92 in1013.2 mb 0.00 in0.0 mm 0.00 in0.0 mm 0.00 in0.0 mm
04:49 PM 66.0°F18.9°C 54.7°F12.6°C 67% 0.4 mph NNE0.6 kmh NNE 2.0 mph3.2 kmh 29.92 in1013.2 mb 0.00 in0.0 mm 0.00 in0.0 mm 0.00 in0.0 mm
04:57 PM 65.8°F18.8°C 54.5°F12.5°C 67% 0.6 mph ENE1.0 kmh ENE 0.6 mph1.0 kmh 29.92 in1013.2 mb 0.00 in0.0 mm 0.00 in0.0 mm 0.00 in0.0 mm
05:06 PM 65.4°F18.6°C 54.6°F12.6°C 68% 1.7 mph NE2.7 kmh NE 2.0 mph3.2 kmh 29.92 in1013.2 mb 0.00 in0.0 mm 0.00 in0.0 mm 0.00 in0.0 mm
05:14 PM 65.1°F18.4°C 54.3°F12.4°C 68% 2.4 mph NE3.9 kmh NE 2.4 mph3.9 kmh 29.92 in1013.2 mb 0.00 in0.0 mm 0.00 in0.0 mm 0.00 in0.0 mm
05:22 PM 64.9°F18.3°C 54.1°F12.3°C 69% 2.2 mph NNE3.5 kmh NNE 2.4 mph3.9 kmh 29.92 in1013.2 mb 0.00 in0.0 mm 0.00 in0.0 mm 0.00 in0.0 mm
05:30 PM 64.5°F18.1°C 54.6°F12.6°C 70% 1.9 mph NE3.1 kmh NE 2.4 mph3.9 kmh 29.92 in1013.2 mb 0.00 in0.0 mm 0.00 in0.0 mm 0.00 in0.0 mm
05:38 PM 64.2°F17.9°C 54.3°F12.4°C 70% Calm Calm 2.0 mph3.2 kmh 29.92 in1013.2 mb 0.00 in0.0 mm 0.00 in0.0 mm 0.00 in0.0 mm
05:46 PM 63.6°F17.6°C 54.1°F12.3°C 71% Calm Calm -- 29.92 in1013.2 mb 0.00 in0.0 mm 0.00 in0.0 mm 0.00 in0.0 mm
05:54 PM 63.3°F17.4°C 54.1°F12.3°C 72% 0.8 mph NE1.3 kmh NE 0.8 mph1.3 kmh 29.92 in1013.2 mb 0.00 in0.0 mm 0.00 in0.0 mm 0.00 in0.0 mm
06:02 PM 63.3°F17.4°C 54.1°F12.3°C 74% 1.3 mph ENE2.1 kmh ENE 1.3 mph2.1 kmh 29.93 in1013.5 mb 0.00 in0.0 mm 0.00 in0.0 mm 0.00 in0.0 mm
06:10 PM 63.3°F17.4°C 54.1°F12.3°C 75% 2.2 mph NNE3.5 kmh NNE 3.8 mph6.1 kmh 29.92 in1013.2 mb 0.00 in0.0 mm 0.00 in0.0 mm 0.00 in0.0 mm
06:18 PM 63.3°F17.4°C 54.1°F12.3°C 75% 1.5 mph NE2.4 kmh NE 2.6 mph4.2 kmh 29.93 in1013.5 mb 0.00 in0.0 mm 0.00 in0.0 mm 0.00 in0.0 mm
06:27 PM 62.7°F17.1°C 55.0°F12.8°C 76% Calm Calm 1.5 mph2.4 kmh 29.93 in1013.5 mb 0.00 in0.0 mm 0.00 in0.0 mm 0.00 in0.0 mm
06:35 PM 62.2°F16.8°C 54.5°F12.5°C 77% Calm Calm -- 29.93 in1013.5 mb 0.00 in0.0 mm 0.00 in0.0 mm 0.00 in0.0 mm
06:43 PM 61.7°F16.5°C 54.4°F12.4°C 77% Calm Calm -- 29.93 in1013.5 mb 0.00 in0.0 mm 0.00 in0.0 mm 0.00 in0.0 mm
06:51 PM 61.3°F16.3°C 54.4°F12.4°C 78% Calm Calm -- 29.93 in1013.5 mb 0.00 in0.0 mm 0.00 in0.0 mm 0.00 in0.0 mm
06:59 PM 60.9°F16.1°C 54.4°F12.4°C 79% Calm Calm -- 29.93 in1013.5 mb 0.00 in0.0 mm 0.00 in0.0 mm 0.00 in0.0 mm
07:07 PM 60.6°F15.9°C 54.5°F12.5°C 80% Calm Calm -- 29.93 in1013.5 mb 0.00 in0.0 mm 0.00 in0.0 mm 0.00 in0.0 mm
07:15 PM 60.8°F16.0°C 54.6°F12.6°C 80% Calm Calm -- 29.93 in1013.5 mb 0.00 in0.0 mm 0.00 in0.0 mm 0.00 in0.0 mm
07:23 PM 60.6°F15.9°C 54.5°F12.5°C 80% Calm Calm 0.4 mph0.6 kmh 29.92 in1013.2 mb 0.00 in0.0 mm 0.00 in0.0 mm 0.00 in0.0 mm
07:31 PM 60.4°F15.8°C 54.6°F12.6°C 81% Calm Calm -- 29.92 in1013.2 mb 0.00 in0.0 mm 0.00 in0.0 mm 0.00 in0.0 mm
07:39 PM 60.2°F15.7°C 54.4°F12.4°C 81% Calm Calm -- 29.92 in1013.2 mb 0.00 in0.0 mm 0.00 in0.0 mm 0.00 in0.0 mm
07:47 PM 59.7°F15.4°C 53.9°F12.2°C 81% Calm Calm -- 29.92 in1013.2 mb 0.00 in0.0 mm 0.00 in0.0 mm 0.00 in0.0 mm
07:56 PM 59.1°F15.1°C 53.3°F11.8°C 81% Calm Calm -- 29.93 in1013.5 mb 0.00 in0.0 mm 0.00 in0.0 mm 0.00 in0.0 mm
08:04 PM 58.2°F14.6°C 52.4°F11.3°C 81% Calm Calm -- 29.93 in1013.5 mb 0.00 in0.0 mm 0.00 in0.0 mm 0.00 in0.0 mm
08:12 PM 58.2°F14.6°C 52.4°F11.3°C 82% Calm Calm -- 29.93 in1013.5 mb 0.00 in0.0 mm 0.00 in0.0 mm 0.00 in0.0 mm
08:20 PM 58.2°F14.6°C 52.4°F11.3°C 83% Calm Calm -- 29.93 in1013.5 mb 0.00 in0.0 mm 0.00 in0.0 mm 0.00 in0.0 mm
08:28 PM 58.2°F14.6°C 53.1°F11.7°C 83% Calm Calm -- 29.93 in1013.5 mb 0.00 in0.0 mm 0.00 in0.0 mm 0.00 in0.0 mm
08:36 PM 58.2°F14.6°C 53.1°F11.7°C 83% Calm Calm -- 29.93 in1013.5 mb 0.00 in0.0 mm 0.00 in0.0 mm 0.00 in0.0 mm
08:44 PM 58.2°F14.6°C 53.1°F11.7°C 83% Calm Calm 0.4 mph0.6 kmh 29.93 in1013.5 mb 0.00 in0.0 mm 0.00 in0.0 mm 0.00 in0.0 mm
08:52 PM 58.6°F14.8°C 53.4°F11.9°C 83% Calm Calm -- 29.93 in1013.5 mb 0.00 in0.0 mm 0.00 in0.0 mm 0.00 in0.0 mm
09:00 PM 58.4°F14.7°C 53.3°F11.8°C 83% Calm Calm -- 29.93 in1013.5 mb 0.00 in0.0 mm 0.00 in0.0 mm 0.00 in0.0 mm
09:08 PM 58.1°F14.5°C 52.9°F11.6°C 83% Calm Calm 1.3 mph2.1 kmh 29.93 in1013.5 mb 0.00 in0.0 mm 0.00 in0.0 mm 0.00 in0.0 mm
09:16 PM 57.9°F14.4°C 52.7°F11.5°C 83% 1.1 mph SSE1.8 kmh SSE 1.1 mph1.8 kmh 29.94 in1013.9 mb 0.00 in0.0 mm 0.00 in0.0 mm 0.00 in0.0 mm
09:25 PM 57.7°F14.3°C 52.9°F11.6°C 84% Calm Calm 1.1 mph1.8 kmh 29.94 in1013.9 mb 0.00 in0.0 mm 0.00 in0.0 mm 0.00 in0.0 mm
09:33 PM 57.3°F14.1°C 52.5°F11.4°C 84% Calm Calm -- 29.94 in1013.9 mb 0.00 in0.0 mm 0.00 in0.0 mm 0.00 in0.0 mm
09:41 PM 57.2°F14.0°C 52.3°F11.3°C 84% Calm Calm -- 29.94 in1013.9 mb 0.00 in0.0 mm 0.00 in0.0 mm 0.00 in0.0 mm
09:49 PM 56.8°F13.8°C 52.0°F11.1°C 84% Calm Calm -- 29.94 in1013.9 mb 0.00 in0.0 mm 0.00 in0.0 mm 0.00 in0.0 mm
09:57 PM 56.6°F13.7°C 51.8°F11.0°C 84% Calm Calm -- 29.94 in1013.9 mb 0.00 in0.0 mm 0.00 in0.0 mm 0.00 in0.0 mm
10:05 PM 56.4°F13.6°C 51.9°F11.1°C 85% Calm Calm -- 29.94 in1013.9 mb 0.00 in0.0 mm 0.00 in0.0 mm 0.00 in0.0 mm
10:13 PM 56.1°F13.4°C 51.6°F10.9°C 85% Calm Calm -- 29.93 in1013.5 mb 0.00 in0.0 mm 0.00 in0.0 mm 0.00 in0.0 mm
10:21 PM 56.1°F13.4°C 51.6°F10.9°C 85% Calm Calm -- 29.93 in1013.5 mb 0.00 in0.0 mm 0.00 in0.0 mm 0.00 in0.0 mm
10:28 PM 55.9°F13.3°C 51.4°F10.8°C 85% Calm Calm -- 29.93 in1013.5 mb 0.00 in0.0 mm 0.00 in0.0 mm 0.00 in0.0 mm
10:33 PM 55.9°F13.3°C 51.4°F10.8°C 85% Calm Calm -- 29.93 in1013.5 mb 0.00 in0.0 mm 0.00 in0.0 mm 0.00 in0.0 mm
10:41 PM 55.5°F13.1°C 51.4°F10.8°C 86% Calm Calm -- 29.93 in1013.5 mb 0.00 in0.0 mm 0.00 in0.0 mm 0.00 in0.0 mm
10:49 PM 55.2°F12.9°C 51.0°F10.6°C 86% Calm Calm -- 29.93 in1013.5 mb 0.00 in0.0 mm 0.00 in0.0 mm 0.00 in0.0 mm
10:57 PM 55.2°F12.9°C 51.0°F10.6°C 86% Calm Calm -- 29.93 in1013.5 mb 0.00 in0.0 mm 0.00 in0.0 mm 0.00 in0.0 mm
11:05 PM 55.2°F12.9°C 51.0°F10.6°C 86% Calm Calm -- 29.93 in1013.5 mb 0.00 in0.0 mm 0.00 in0.0 mm 0.00 in0.0 mm
11:13 PM 55.2°F12.9°C 51.0°F10.6°C 86% Calm Calm -- 29.93 in1013.5 mb 0.00 in0.0 mm 0.00 in0.0 mm 0.00 in0.0 mm
11:22 PM 55.0°F12.8°C 51.2°F10.7°C 87% Calm Calm -- 29.93 in1013.5 mb 0.00 in0.0 mm 0.00 in0.0 mm 0.00 in0.0 mm
11:30 PM 55.0°F12.8°C 51.2°F10.7°C 87% Calm Calm -- 29.92 in1013.2 mb 0.00 in0.0 mm 0.00 in0.0 mm 0.00 in0.0 mm
11:38 PM 54.6°F12.6°C 50.8°F10.4°C 87% 0.4 mph S0.6 kmh S 0.4 mph0.6 kmh 29.92 in1013.2 mb 0.00 in0.0 mm 0.00 in0.0 mm 0.00 in0.0 mm
11:46 PM 55.0°F12.8°C 51.2°F10.7°C 87% 1.5 mph SSW2.4 kmh SSW 2.2 mph3.5 kmh 29.92 in1013.2 mb 0.00 in0.0 mm 0.00 in0.0 mm 0.00 in0.0 mm
11:54 PM 55.2°F12.9°C 51.6°F10.9°C 88% 1.5 mph SSE2.4 kmh SSE 3.1 mph5.0 kmh 29.92 in1013.2 mb 0.00 in0.0 mm 0.00 in0.0 mm 0.00 in0.0 mm